sensor_id;sensor_type;location;lat;lon;timestamp;temperature;humidity
26182;DHT22;13927;51.534;11.866;2023-09-07T00:02:16;16.00;99.90
26182;DHT22;13927;51.534;11.866;2023-09-07T00:04:44;15.90;99.90
26182;DHT22;13927;51.534;11.866;2023-09-07T00:07:12;15.90;99.90
26182;DHT22;13927;51.534;11.866;2023-09-07T00:09:39;15.90;99.90
26182;DHT22;13927;51.534;11.866;2023-09-07T00:12:06;15.90;99.90
26182;DHT22;13927;51.534;11.866;2023-09-07T00:14:34;15.90;99.90
26182;DHT22;13927;51.534;11.866;2023-09-07T00:17:02;15.90;99.90
26182;DHT22;13927;51.534;11.866;2023-09-07T00:19:31;15.90;99.90
26182;DHT22;13927;51.534;11.866;2023-09-07T00:22:04;15.90;99.90
26182;DHT22;13927;51.534;11.866;2023-09-07T00:24:32;15.90;99.90
26182;DHT22;13927;51.534;11.866;2023-09-07T00:27:01;15.80;99.90
26182;DHT22;13927;51.534;11.866;2023-09-07T00:29:34;15.80;99.90
26182;DHT22;13927;51.534;11.866;2023-09-07T00:32:04;15.80;99.90
26182;DHT22;13927;51.534;11.866;2023-09-07T00:34:32;15.80;99.90
26182;DHT22;13927;51.534;11.866;2023-09-07T00:37:03;15.70;99.90
26182;DHT22;13927;51.534;11.866;2023-09-07T00:39:32;15.70;99.90
26182;DHT22;13927;51.534;11.866;2023-09-07T00:42:00;15.70;99.90
26182;DHT22;13927;51.534;11.866;2023-09-07T00:44:31;15.70;99.90
26182;DHT22;13927;51.534;11.866;2023-09-07T00:47:09;15.70;99.90
26182;DHT22;13927;51.534;11.866;2023-09-07T00:49:39;15.60;99.90
26182;DHT22;13927;51.534;11.866;2023-09-07T00:52:09;15.60;99.90
26182;DHT22;13927;51.534;11.866;2023-09-07T00:54:38;15.60;99.90
26182;DHT22;13927;51.534;11.866;2023-09-07T00:57:09;15.60;99.90
26182;DHT22;13927;51.534;11.866;2023-09-07T00:59:36;15.50;99.90
26182;DHT22;13927;51.534;11.866;2023-09-07T01:02:03;15.50;99.90
26182;DHT22;13927;51.534;11.866;2023-09-07T01:04:31;15.50;99.90
26182;DHT22;13927;51.534;11.866;2023-09-07T01:07:37;15.50;99.90
26182;DHT22;13927;51.534;11.866;2023-09-07T01:10:08;15.50;99.90
26182;DHT22;13927;51.534;11.866;2023-09-07T01:12:35;15.50;99.90
26182;DHT22;13927;51.534;11.866;2023-09-07T01:15:03;15.50;99.90
26182;DHT22;13927;51.534;11.866;2023-09-07T01:17:33;15.40;99.90
26182;DHT22;13927;51.534;11.866;2023-09-07T01:20:06;15.40;99.90
26182;DHT22;13927;51.534;11.866;2023-09-07T01:22:39;15.40;99.90
26182;DHT22;13927;51.534;11.866;2023-09-07T01:25:08;15.40;99.90
26182;DHT22;13927;51.534;11.866;2023-09-07T01:27:36;15.40;99.90
26182;DHT22;13927;51.534;11.866;2023-09-07T01:30:04;15.30;99.90
26182;DHT22;13927;51.534;11.866;2023-09-07T01:32:32;15.30;99.90
26182;DHT22;13927;51.534;11.866;2023-09-07T01:35:00;15.30;99.90
26182;DHT22;13927;51.534;11.866;2023-09-07T01:37:28;15.30;99.90
26182;DHT22;13927;51.534;11.866;2023-09-07T01:39:55;15.20;99.90
26182;DHT22;13927;51.534;11.866;2023-09-07T01:42:23;15.20;99.90
26182;DHT22;13927;51.534;11.866;2023-09-07T01:44:52;15.20;99.90
26182;DHT22;13927;51.534;11.866;2023-09-07T01:47:20;15.10;99.90
26182;DHT22;13927;51.534;11.866;2023-09-07T01:49:50;15.10;99.90
26182;DHT22;13927;51.534;11.866;2023-09-07T01:52:18;15.10;99.90
26182;DHT22;13927;51.534;11.866;2023-09-07T01:54:46;15.10;99.90
26182;DHT22;13927;51.534;11.866;2023-09-07T01:57:17;15.10;99.90
26182;DHT22;13927;51.534;11.866;2023-09-07T01:59:46;15.10;99.90
26182;DHT22;13927;51.534;11.866;2023-09-07T02:02:21;15.10;99.90
26182;DHT22;13927;51.534;11.866;2023-09-07T02:04:54;15.10;99.90
26182;DHT22;13927;51.534;11.866;2023-09-07T02:07:25;15.10;99.90
26182;DHT22;13927;51.534;11.866;2023-09-07T02:09:54;15.00;99.90
26182;DHT22;13927;51.534;11.866;2023-09-07T02:12:23;15.00;99.90
26182;DHT22;13927;51.534;11.866;2023-09-07T02:15:05;15.00;99.90
26182;DHT22;13927;51.534;11.866;2023-09-07T02:17:36;15.00;99.90
26182;DHT22;13927;51.534;11.866;2023-09-07T02:20:06;14.90;99.90
26182;DHT22;13927;51.534;11.866;2023-09-07T02:22:41;14.90;99.90
26182;DHT22;13927;51.534;11.866;2023-09-07T02:25:13;14.90;99.90
26182;DHT22;13927;51.534;11.866;2023-09-07T02:27:46;14.80;99.90
26182;DHT22;13927;51.534;11.866;2023-09-07T02:30:15;14.80;99.90
26182;DHT22;13927;51.534;11.866;2023-09-07T02:32:45;14.80;99.90
26182;DHT22;13927;51.534;11.866;2023-09-07T02:35:18;14.80;99.90
26182;DHT22;13927;51.534;11.866;2023-09-07T02:37:48;14.80;99.90
26182;DHT22;13927;51.534;11.866;2023-09-07T02:40:15;14.80;99.90
26182;DHT22;13927;51.534;11.866;2023-09-07T02:42:45;14.80;99.90
26182;DHT22;13927;51.534;11.866;2023-09-07T02:45:15;14.80;99.90
26182;DHT22;13927;51.534;11.866;2023-09-07T02:47:48;14.80;99.90
26182;DHT22;13927;51.534;11.866;2023-09-07T02:50:20;14.80;99.90
26182;DHT22;13927;51.534;11.866;2023-09-07T02:52:56;14.70;99.90
26182;DHT22;13927;51.534;11.866;2023-09-07T02:55:32;14.70;99.90
26182;DHT22;13927;51.534;11.866;2023-09-07T02:58:03;14.70;99.90
26182;DHT22;13927;51.534;11.866;2023-09-07T03:00:47;14.70;99.90
26182;DHT22;13927;51.534;11.866;2023-09-07T03:03:20;14.70;99.90
26182;DHT22;13927;51.534;11.866;2023-09-07T03:05:48;14.60;99.90
26182;DHT22;13927;51.534;11.866;2023-09-07T03:08:17;14.50;99.90
26182;DHT22;13927;51.534;11.866;2023-09-07T03:10:43;14.50;99.90
26182;DHT22;13927;51.534;11.866;2023-09-07T03:13:09;14.50;99.90
26182;DHT22;13927;51.534;11.866;2023-09-07T03:15:35;14.40;99.90
26182;DHT22;13927;51.534;11.866;2023-09-07T03:18:01;14.40;99.90
26182;DHT22;13927;51.534;11.866;2023-09-07T03:20:27;14.50;99.90
26182;DHT22;13927;51.534;11.866;2023-09-07T03:22:52;14.40;99.90
26182;DHT22;13927;51.534;11.866;2023-09-07T03:25:18;14.40;99.90
26182;DHT22;13927;51.534;11.866;2023-09-07T03:27:44;14.40;99.90
26182;DHT22;13927;51.534;11.866;2023-09-07T03:30:10;14.40;99.90
26182;DHT22;13927;51.534;11.866;2023-09-07T03:32:36;14.40;99.90
26182;DHT22;13927;51.534;11.866;2023-09-07T03:35:04;14.40;99.90
26182;DHT22;13927;51.534;11.866;2023-09-07T03:37:36;14.40;99.90
26182;DHT22;13927;51.534;11.866;2023-09-07T03:40:05;14.40;99.90
26182;DHT22;13927;51.534;11.866;2023-09-07T03:42:31;14.40;99.90
26182;DHT22;13927;51.534;11.866;2023-09-07T03:44:57;14.40;99.90
26182;DHT22;13927;51.534;11.866;2023-09-07T03:47:23;14.30;99.90
26182;DHT22;13927;51.534;11.866;2023-09-07T03:49:54;14.40;99.90
26182;DHT22;13927;51.534;11.866;2023-09-07T03:52:21;14.40;99.90
26182;DHT22;13927;51.534;11.866;2023-09-07T03:54:55;14.30;99.90
26182;DHT22;13927;51.534;11.866;2023-09-07T03:57:22;14.30;99.90
26182;DHT22;13927;51.534;11.866;2023-09-07T03:59:48;14.40;99.90
26182;DHT22;13927;51.534;11.866;2023-09-07T04:02:14;14.30;99.90
26182;DHT22;13927;51.534;11.866;2023-09-07T04:04:41;14.30;99.90
26182;DHT22;13927;51.534;11.866;2023-09-07T04:07:07;14.30;99.90
26182;DHT22;13927;51.534;11.866;2023-09-07T04:09:33;14.30;99.90
26182;DHT22;13927;51.534;11.866;2023-09-07T04:11:59;14.30;99.90
26182;DHT22;13927;51.534;11.866;2023-09-07T04:14:24;14.20;99.90
26182;DHT22;13927;51.534;11.866;2023-09-07T04:16:50;14.30;99.90
26182;DHT22;13927;51.534;11.866;2023-09-07T04:19:16;14.30;99.90
26182;DHT22;13927;51.534;11.866;2023-09-07T04:21:42;14.20;99.90
26182;DHT22;13927;51.534;11.866;2023-09-07T04:24:08;14.20;99.90
26182;DHT22;13927;51.534;11.866;2023-09-07T04:26:36;14.20;99.90
26182;DHT22;13927;51.534;11.866;2023-09-07T04:29:03;14.20;99.90
26182;DHT22;13927;51.534;11.866;2023-09-07T04:31:29;14.20;99.90
26182;DHT22;13927;51.534;11.866;2023-09-07T04:33:55;14.20;99.90
26182;DHT22;13927;51.534;11.866;2023-09-07T04:36:20;14.10;99.90
26182;DHT22;13927;51.534;11.866;2023-09-07T04:38:46;14.10;99.90
26182;DHT22;13927;51.534;11.866;2023-09-07T04:41:13;14.10;99.90
26182;DHT22;13927;51.534;11.866;2023-09-07T04:43:40;14.10;99.90
26182;DHT22;13927;51.534;11.866;2023-09-07T04:46:13;14.10;99.90
26182;DHT22;13927;51.534;11.866;2023-09-07T04:48:40;14.10;99.90
26182;DHT22;13927;51.534;11.866;2023-09-07T04:51:08;14.10;99.90
26182;DHT22;13927;51.534;11.866;2023-09-07T04:53:36;14.10;99.90
26182;DHT22;13927;51.534;11.866;2023-09-07T04:56:06;14.10;99.90
26182;DHT22;13927;51.534;11.866;2023-09-07T04:58:32;14.10;99.90
26182;DHT22;13927;51.534;11.866;2023-09-07T05:01:05;14.10;99.90
26182;DHT22;13927;51.534;11.866;2023-09-07T05:03:32;14.10;99.90
26182;DHT22;13927;51.534;11.866;2023-09-07T05:05:59;14.10;99.90
26182;DHT22;13927;51.534;11.866;2023-09-07T05:08:25;14.20;99.90
26182;DHT22;13927;51.534;11.866;2023-09-07T05:10:56;14.20;99.90
26182;DHT22;13927;51.534;11.866;2023-09-07T05:13:23;14.20;99.90
26182;DHT22;13927;51.534;11.866;2023-09-07T05:15:51;14.20;99.90
26182;DHT22;13927;51.534;11.866;2023-09-07T05:18:17;14.30;99.90
26182;DHT22;13927;51.534;11.866;2023-09-07T05:20:44;14.30;99.90
26182;DHT22;13927;51.534;11.866;2023-09-07T05:23:12;14.40;99.90
26182;DHT22;13927;51.534;11.866;2023-09-07T05:25:48;14.40;99.90
26182;DHT22;13927;51.534;11.866;2023-09-07T05:28:19;14.50;99.90
26182;DHT22;13927;51.534;11.866;2023-09-07T05:30:45;14.50;99.90
26182;DHT22;13927;51.534;11.866;2023-09-07T05:33:13;14.60;99.90
26182;DHT22;13927;51.534;11.866;2023-09-07T05:35:40;14.70;99.90
26182;DHT22;13927;51.534;11.866;2023-09-07T05:38:07;14.80;99.90
26182;DHT22;13927;51.534;11.866;2023-09-07T05:40:38;14.90;99.90
26182;DHT22;13927;51.534;11.866;2023-09-07T05:43:08;15.00;99.90
26182;DHT22;13927;51.534;11.866;2023-09-07T05:45:37;15.10;99.90
26182;DHT22;13927;51.534;11.866;2023-09-07T05:48:05;15.20;99.90
26182;DHT22;13927;51.534;11.866;2023-09-07T05:50:34;15.30;99.90
26182;DHT22;13927;51.534;11.866;2023-09-07T05:53:00;15.40;99.90
26182;DHT22;13927;51.534;11.866;2023-09-07T05:55:27;15.50;99.90
26182;DHT22;13927;51.534;11.866;2023-09-07T05:57:57;15.50;99.90
26182;DHT22;13927;51.534;11.866;2023-09-07T06:00:23;15.60;99.90
26182;DHT22;13927;51.534;11.866;2023-09-07T06:02:50;15.70;99.90
26182;DHT22;13927;51.534;11.866;2023-09-07T06:05:16;15.80;99.90
26182;DHT22;13927;51.534;11.866;2023-09-07T06:07:43;15.90;99.90
26182;DHT22;13927;51.534;11.866;2023-09-07T06:10:09;16.10;99.90
26182;DHT22;13927;51.534;11.866;2023-09-07T06:12:36;16.20;99.90
26182;DHT22;13927;51.534;11.866;2023-09-07T06:15:02;16.30;99.90
26182;DHT22;13927;51.534;11.866;2023-09-07T06:17:29;16.40;99.90
26182;DHT22;13927;51.534;11.866;2023-09-07T06:19:56;16.50;99.90
26182;DHT22;13927;51.534;11.866;2023-09-07T06:22:22;16.60;99.90
26182;DHT22;13927;51.534;11.866;2023-09-07T06:24:49;16.80;99.90
26182;DHT22;13927;51.534;11.866;2023-09-07T06:27:15;17.00;99.90
26182;DHT22;13927;51.534;11.866;2023-09-07T06:29:41;17.20;99.90
26182;DHT22;13927;51.534;11.866;2023-09-07T06:32:08;17.40;99.90
26182;DHT22;13927;51.534;11.866;2023-09-07T06:34:34;17.50;99.90
26182;DHT22;13927;51.534;11.866;2023-09-07T06:37:01;17.80;99.90
26182;DHT22;13927;51.534;11.866;2023-09-07T06:39:27;18.00;99.90
26182;DHT22;13927;51.534;11.866;2023-09-07T06:41:53;18.20;99.90
26182;DHT22;13927;51.534;11.866;2023-09-07T06:44:20;18.30;99.90
26182;DHT22;13927;51.534;11.866;2023-09-07T06:46:46;18.50;99.90
26182;DHT22;13927;51.534;11.866;2023-09-07T06:49:12;18.70;99.90
26182;DHT22;13927;51.534;11.866;2023-09-07T06:51:39;18.90;99.90
26182;DHT22;13927;51.534;11.866;2023-09-07T06:54:05;19.10;99.90
26182;DHT22;13927;51.534;11.866;2023-09-07T06:56:31;19.30;99.90
26182;DHT22;13927;51.534;11.866;2023-09-07T06:59:00;19.50;99.90
26182;DHT22;13927;51.534;11.866;2023-09-07T07:01:27;19.70;99.90
26182;DHT22;13927;51.534;11.866;2023-09-07T07:03:53;19.90;99.90
26182;DHT22;13927;51.534;11.866;2023-09-07T07:06:19;20.20;99.90
26182;DHT22;13927;51.534;11.866;2023-09-07T07:08:45;20.20;99.90
26182;DHT22;13927;51.534;11.866;2023-09-07T07:11:11;20.30;99.90
26182;DHT22;13927;51.534;11.866;2023-09-07T07:13:37;20.60;99.90
26182;DHT22;13927;51.534;11.866;2023-09-07T07:16:04;20.80;99.90
26182;DHT22;13927;51.534;11.866;2023-09-07T07:18:30;21.00;99.90
26182;DHT22;13927;51.534;11.866;2023-09-07T07:20:57;21.20;99.90
26182;DHT22;13927;51.534;11.866;2023-09-07T07:23:23;21.40;99.90
26182;DHT22;13927;51.534;11.866;2023-09-07T07:25:50;21.50;99.90
26182;DHT22;13927;51.534;11.866;2023-09-07T07:28:17;21.60;99.90
26182;DHT22;13927;51.534;11.866;2023-09-07T07:30:44;21.70;99.90
26182;DHT22;13927;51.534;11.866;2023-09-07T07:33:10;21.90;99.90
26182;DHT22;13927;51.534;11.866;2023-09-07T07:35:40;21.90;99.90
26182;DHT22;13927;51.534;11.866;2023-09-07T07:38:06;22.10;99.90
26182;DHT22;13927;51.534;11.866;2023-09-07T07:40:33;22.20;99.90
26182;DHT22;13927;51.534;11.866;2023-09-07T07:42:59;22.40;99.90
26182;DHT22;13927;51.534;11.866;2023-09-07T07:45:26;22.50;99.90
26182;DHT22;13927;51.534;11.866;2023-09-07T07:47:53;22.60;99.90
26182;DHT22;13927;51.534;11.866;2023-09-07T07:50:20;22.80;99.90
26182;DHT22;13927;51.534;11.866;2023-09-07T07:52:47;22.90;99.90
26182;DHT22;13927;51.534;11.866;2023-09-07T07:55:13;23.10;99.90
26182;DHT22;13927;51.534;11.866;2023-09-07T07:57:40;23.30;99.90
26182;DHT22;13927;51.534;11.866;2023-09-07T08:00:07;23.40;99.90
26182;DHT22;13927;51.534;11.866;2023-09-07T08:02:34;23.70;99.90
26182;DHT22;13927;51.534;11.866;2023-09-07T08:05:01;23.80;99.90
26182;DHT22;13927;51.534;11.866;2023-09-07T08:07:27;24.10;99.90
26182;DHT22;13927;51.534;11.866;2023-09-07T08:09:54;24.30;99.90
26182;DHT22;13927;51.534;11.866;2023-09-07T08:12:21;24.40;99.90
26182;DHT22;13927;51.534;11.866;2023-09-07T08:14:47;24.60;99.90
26182;DHT22;13927;51.534;11.866;2023-09-07T08:17:14;24.80;99.90
26182;DHT22;13927;51.534;11.866;2023-09-07T08:19:42;25.00;99.90
26182;DHT22;13927;51.534;11.866;2023-09-07T08:22:10;25.20;99.90
26182;DHT22;13927;51.534;11.866;2023-09-07T08:24:36;25.30;99.90
26182;DHT22;13927;51.534;11.866;2023-09-07T08:27:03;25.50;99.90
26182;DHT22;13927;51.534;11.866;2023-09-07T08:29:30;25.70;99.90
26182;DHT22;13927;51.534;11.866;2023-09-07T08:31:58;25.80;99.90
26182;DHT22;13927;51.534;11.866;2023-09-07T08:34:27;26.00;99.90
26182;DHT22;13927;51.534;11.866;2023-09-07T08:36:54;26.20;99.90
26182;DHT22;13927;51.534;11.866;2023-09-07T08:39:25;26.40;99.90
26182;DHT22;13927;51.534;11.866;2023-09-07T08:41:52;26.60;99.90
26182;DHT22;13927;51.534;11.866;2023-09-07T08:44:19;26.80;99.90
26182;DHT22;13927;51.534;11.866;2023-09-07T08:46:46;27.00;99.90
26182;DHT22;13927;51.534;11.866;2023-09-07T08:49:16;27.10;99.90
26182;DHT22;13927;51.534;11.866;2023-09-07T08:51:45;27.30;99.90
26182;DHT22;13927;51.534;11.866;2023-09-07T08:54:12;27.40;99.90
26182;DHT22;13927;51.534;11.866;2023-09-07T08:56:39;27.50;99.90
26182;DHT22;13927;51.534;11.866;2023-09-07T08:59:07;27.80;99.90
26182;DHT22;13927;51.534;11.866;2023-09-07T09:01:33;28.00;99.90
26182;DHT22;13927;51.534;11.866;2023-09-07T09:04:00;28.20;99.90
26182;DHT22;13927;51.534;11.866;2023-09-07T09:06:27;28.20;99.90
26182;DHT22;13927;51.534;11.866;2023-09-07T09:08:56;28.10;99.90
26182;DHT22;13927;51.534;11.866;2023-09-07T09:11:25;28.30;99.90
26182;DHT22;13927;51.534;11.866;2023-09-07T09:13:54;28.50;99.90
26182;DHT22;13927;51.534;11.866;2023-09-07T09:16:20;28.60;99.90
26182;DHT22;13927;51.534;11.866;2023-09-07T09:18:51;28.70;99.90
26182;DHT22;13927;51.534;11.866;2023-09-07T09:21:20;28.70;99.90
26182;DHT22;13927;51.534;11.866;2023-09-07T09:23:56;29.00;99.90
26182;DHT22;13927;51.534;11.866;2023-09-07T09:26:23;29.40;99.90
26182;DHT22;13927;51.534;11.866;2023-09-07T09:28:50;29.60;99.90
26182;DHT22;13927;51.534;11.866;2023-09-07T09:31:18;29.70;99.90
26182;DHT22;13927;51.534;11.866;2023-09-07T09:33:48;29.70;99.90
26182;DHT22;13927;51.534;11.866;2023-09-07T09:36:17;29.70;99.90
26182;DHT22;13927;51.534;11.866;2023-09-07T09:38:48;29.60;99.90
26182;DHT22;13927;51.534;11.866;2023-09-07T09:41:20;29.20;99.90
26182;DHT22;13927;51.534;11.866;2023-09-07T09:43:47;29.50;99.90
26182;DHT22;13927;51.534;11.866;2023-09-07T09:46:20;29.80;99.90
26182;DHT22;13927;51.534;11.866;2023-09-07T09:48:48;30.00;99.90
26182;DHT22;13927;51.534;11.866;2023-09-07T09:51:15;30.20;99.90
26182;DHT22;13927;51.534;11.866;2023-09-07T09:53:44;30.50;99.90
26182;DHT22;13927;51.534;11.866;2023-09-07T09:56:11;30.80;99.90
26182;DHT22;13927;51.534;11.866;2023-09-07T09:58:39;31.10;99.90
26182;DHT22;13927;51.534;11.866;2023-09-07T10:01:05;31.40;99.90
26182;DHT22;13927;51.534;11.866;2023-09-07T10:03:37;31.40;99.90
26182;DHT22;13927;51.534;11.866;2023-09-07T10:06:17;31.00;99.90
26182;DHT22;13927;51.534;11.866;2023-09-07T10:09:02;31.10;99.90
26182;DHT22;13927;51.534;11.866;2023-09-07T10:11:33;31.20;99.90
26182;DHT22;13927;51.534;11.866;2023-09-07T10:14:02;31.20;99.90
26182;DHT22;13927;51.534;11.866;2023-09-07T10:16:40;31.60;99.90
26182;DHT22;13927;51.534;11.866;2023-09-07T10:19:20;31.40;99.90
26182;DHT22;13927;51.534;11.866;2023-09-07T10:21:48;31.70;99.90
26182;DHT22;13927;51.534;11.866;2023-09-07T10:24:29;31.60;99.90
26182;DHT22;13927;51.534;11.866;2023-09-07T10:27:08;31.60;99.90
26182;DHT22;13927;51.534;11.866;2023-09-07T10:29:50;31.80;99.90
26182;DHT22;13927;51.534;11.866;2023-09-07T10:32:19;32.00;99.90
26182;DHT22;13927;51.534;11.866;2023-09-07T10:34:46;32.30;99.90
26182;DHT22;13927;51.534;11.866;2023-09-07T10:37:15;32.40;99.90
26182;DHT22;13927;51.534;11.866;2023-09-07T10:39:43;32.40;99.90
26182;DHT22;13927;51.534;11.866;2023-09-07T10:42:23;32.30;99.90
26182;DHT22;13927;51.534;11.866;2023-09-07T10:44:51;32.40;99.90
26182;DHT22;13927;51.534;11.866;2023-09-07T10:47:17;32.60;99.90
26182;DHT22;13927;51.534;11.866;2023-09-07T10:49:43;32.30;99.90
26182;DHT22;13927;51.534;11.866;2023-09-07T10:52:10;32.30;99.90
26182;DHT22;13927;51.534;11.866;2023-09-07T10:54:35;32.40;99.90
26182;DHT22;13927;51.534;11.866;2023-09-07T10:57:11;32.70;99.90
26182;DHT22;13927;51.534;11.866;2023-09-07T10:59:46;32.90;99.90
26182;DHT22;13927;51.534;11.866;2023-09-07T11:02:13;33.00;99.90
26182;DHT22;13927;51.534;11.866;2023-09-07T11:04:40;32.80;99.90
26182;DHT22;13927;51.534;11.866;2023-09-07T11:07:06;32.80;99.90
26182;DHT22;13927;51.534;11.866;2023-09-07T11:09:33;32.80;99.90
26182;DHT22;13927;51.534;11.866;2023-09-07T11:12:05;32.60;99.90
26182;DHT22;13927;51.534;11.866;2023-09-07T11:14:32;32.80;99.90
26182;DHT22;13927;51.534;11.866;2023-09-07T11:16:58;32.90;99.90
26182;DHT22;13927;51.534;11.866;2023-09-07T11:19:26;32.40;99.90
26182;DHT22;13927;51.534;11.866;2023-09-07T11:21:55;32.30;99.90
26182;DHT22;13927;51.534;11.866;2023-09-07T11:24:21;32.40;99.90
26182;DHT22;13927;51.534;11.866;2023-09-07T11:26:47;32.60;99.90
26182;DHT22;13927;51.534;11.866;2023-09-07T11:29:14;32.70;99.90
26182;DHT22;13927;51.534;11.866;2023-09-07T11:31:45;32.60;99.90
26182;DHT22;13927;51.534;11.866;2023-09-07T11:34:12;32.70;99.90
26182;DHT22;13927;51.534;11.866;2023-09-07T11:36:43;32.80;99.90
26182;DHT22;13927;51.534;11.866;2023-09-07T11:39:09;32.90;99.90
26182;DHT22;13927;51.534;11.866;2023-09-07T11:41:42;33.10;99.90
26182;DHT22;13927;51.534;11.866;2023-09-07T11:44:09;33.00;99.90
26182;DHT22;13927;51.534;11.866;2023-09-07T11:46:36;32.90;99.90
26182;DHT22;13927;51.534;11.866;2023-09-07T11:49:02;32.90;99.90
26182;DHT22;13927;51.534;11.866;2023-09-07T11:51:30;33.10;99.90
26182;DHT22;13927;51.534;11.866;2023-09-07T11:53:56;32.90;99.90
26182;DHT22;13927;51.534;11.866;2023-09-07T11:56:23;32.80;99.90
26182;DHT22;13927;51.534;11.866;2023-09-07T11:58:49;33.00;99.90
26182;DHT22;13927;51.534;11.866;2023-09-07T12:01:15;32.70;99.30
26182;DHT22;13927;51.534;11.866;2023-09-07T12:03:42;32.70;99.90
26182;DHT22;13927;51.534;11.866;2023-09-07T12:06:08;32.90;99.90
26182;DHT22;13927;51.534;11.866;2023-09-07T12:08:36;33.10;99.90
26182;DHT22;13927;51.534;11.866;2023-09-07T12:11:02;33.10;99.90
26182;DHT22;13927;51.534;11.866;2023-09-07T12:13:28;33.30;99.90
26182;DHT22;13927;51.534;11.866;2023-09-07T12:15:54;33.20;99.90
26182;DHT22;13927;51.534;11.866;2023-09-07T12:18:21;33.30;99.90
26182;DHT22;13927;51.534;11.866;2023-09-07T12:20:49;33.30;98.70
26182;DHT22;13927;51.534;11.866;2023-09-07T12:23:15;33.30;99.90
26182;DHT22;13927;51.534;11.866;2023-09-07T12:25:41;33.50;99.90
26182;DHT22;13927;51.534;11.866;2023-09-07T12:28:07;33.70;98.90
26182;DHT22;13927;51.534;11.866;2023-09-07T12:30:33;33.60;95.80
26182;DHT22;13927;51.534;11.866;2023-09-07T12:32:59;33.50;98.90
26182;DHT22;13927;51.534;11.866;2023-09-07T12:35:25;33.60;98.90
26182;DHT22;13927;51.534;11.866;2023-09-07T12:37:51;33.60;97.50
26182;DHT22;13927;51.534;11.866;2023-09-07T12:40:17;33.60;96.00
26182;DHT22;13927;51.534;11.866;2023-09-07T12:42:45;33.70;98.00
26182;DHT22;13927;51.534;11.866;2023-09-07T12:45:12;33.50;96.40
26182;DHT22;13927;51.534;11.866;2023-09-07T12:47:40;33.60;96.50
26182;DHT22;13927;51.534;11.866;2023-09-07T12:50:07;33.40;95.30
26182;DHT22;13927;51.534;11.866;2023-09-07T12:52:34;33.40;97.20
26182;DHT22;13927;51.534;11.866;2023-09-07T12:55:05;33.40;96.60
26182;DHT22;13927;51.534;11.866;2023-09-07T12:57:32;33.40;95.90
26182;DHT22;13927;51.534;11.866;2023-09-07T12:59:57;33.10;94.60
26182;DHT22;13927;51.534;11.866;2023-09-07T13:02:24;33.30;95.00
26182;DHT22;13927;51.534;11.866;2023-09-07T13:04:50;33.30;95.70
26182;DHT22;13927;51.534;11.866;2023-09-07T13:07:16;33.40;95.70
26182;DHT22;13927;51.534;11.866;2023-09-07T13:09:44;33.20;93.40
26182;DHT22;13927;51.534;11.866;2023-09-07T13:12:11;33.20;92.90
26182;DHT22;13927;51.534;11.866;2023-09-07T13:14:37;33.30;94.30
26182;DHT22;13927;51.534;11.866;2023-09-07T13:17:03;33.30;94.70
26182;DHT22;13927;51.534;11.866;2023-09-07T13:19:29;33.20;92.90
26182;DHT22;13927;51.534;11.866;2023-09-07T13:21:55;33.40;95.20
26182;DHT22;13927;51.534;11.866;2023-09-07T13:24:21;33.40;92.60
26182;DHT22;13927;51.534;11.866;2023-09-07T13:26:48;33.40;91.20
26182;DHT22;13927;51.534;11.866;2023-09-07T13:29:16;33.10;90.80
26182;DHT22;13927;51.534;11.866;2023-09-07T13:31:42;33.00;92.00
26182;DHT22;13927;51.534;11.866;2023-09-07T13:34:08;33.10;91.80
26182;DHT22;13927;51.534;11.866;2023-09-07T13:36:34;33.20;91.20
26182;DHT22;13927;51.534;11.866;2023-09-07T13:39:00;33.30;92.00
26182;DHT22;13927;51.534;11.866;2023-09-07T13:41:26;33.20;91.10
26182;DHT22;13927;51.534;11.866;2023-09-07T13:43:53;33.20;92.00
26182;DHT22;13927;51.534;11.866;2023-09-07T13:46:19;33.00;90.40
26182;DHT22;13927;51.534;11.866;2023-09-07T13:48:45;33.00;92.50
26182;DHT22;13927;51.534;11.866;2023-09-07T13:51:11;33.10;92.40
26182;DHT22;13927;51.534;11.866;2023-09-07T13:53:37;33.00;92.30
26182;DHT22;13927;51.534;11.866;2023-09-07T13:56:03;33.00;92.40
26182;DHT22;13927;51.534;11.866;2023-09-07T13:58:29;33.10;91.80
26182;DHT22;13927;51.534;11.866;2023-09-07T14:00:55;33.30;93.70
26182;DHT22;13927;51.534;11.866;2023-09-07T14:03:21;33.40;92.10
26182;DHT22;13927;51.534;11.866;2023-09-07T14:05:47;33.40;91.10
26182;DHT22;13927;51.534;11.866;2023-09-07T14:08:13;33.40;92.80
26182;DHT22;13927;51.534;11.866;2023-09-07T14:10:39;33.30;92.00
26182;DHT22;13927;51.534;11.866;2023-09-07T14:13:05;33.30;92.20
26182;DHT22;13927;51.534;11.866;2023-09-07T14:15:31;33.30;91.80
26182;DHT22;13927;51.534;11.866;2023-09-07T14:17:57;33.50;93.00
26182;DHT22;13927;51.534;11.866;2023-09-07T14:20:24;33.40;93.30
26182;DHT22;13927;51.534;11.866;2023-09-07T14:22:51;33.60;92.40
26182;DHT22;13927;51.534;11.866;2023-09-07T14:25:17;33.20;91.00
26182;DHT22;13927;51.534;11.866;2023-09-07T14:27:43;33.20;92.10
26182;DHT22;13927;51.534;11.866;2023-09-07T14:30:09;33.10;92.70
26182;DHT22;13927;51.534;11.866;2023-09-07T14:32:36;33.30;91.50
26182;DHT22;13927;51.534;11.866;2023-09-07T14:35:02;33.20;92.60
26182;DHT22;13927;51.534;11.866;2023-09-07T14:37:28;33.10;92.70
26182;DHT22;13927;51.534;11.866;2023-09-07T14:39:55;33.10;92.60
26182;DHT22;13927;51.534;11.866;2023-09-07T14:42:23;33.30;92.60
26182;DHT22;13927;51.534;11.866;2023-09-07T14:44:49;33.20;91.50
26182;DHT22;13927;51.534;11.866;2023-09-07T14:47:15;33.40;92.10
26182;DHT22;13927;51.534;11.866;2023-09-07T14:49:41;33.20;92.30
26182;DHT22;13927;51.534;11.866;2023-09-07T14:52:08;33.00;92.10
26182;DHT22;13927;51.534;11.866;2023-09-07T14:54:35;32.60;91.40
26182;DHT22;13927;51.534;11.866;2023-09-07T14:57:01;32.50;92.60
26182;DHT22;13927;51.534;11.866;2023-09-07T14:59:28;32.60;92.20
26182;DHT22;13927;51.534;11.866;2023-09-07T15:01:55;32.30;91.60
26182;DHT22;13927;51.534;11.866;2023-09-07T15:04:21;31.90;92.30
26182;DHT22;13927;51.534;11.866;2023-09-07T15:06:47;31.70;92.60
26182;DHT22;13927;51.534;11.866;2023-09-07T15:09:14;31.50;93.30
26182;DHT22;13927;51.534;11.866;2023-09-07T15:11:40;31.40;94.00
26182;DHT22;13927;51.534;11.866;2023-09-07T15:14:07;31.20;94.30
26182;DHT22;13927;51.534;11.866;2023-09-07T15:16:33;31.00;93.30
26182;DHT22;13927;51.534;11.866;2023-09-07T15:18:59;30.70;93.30
26182;DHT22;13927;51.534;11.866;2023-09-07T15:21:26;30.60;94.30